createdAt,value
2019-02-18T00:00:00.726Z,42.85
2019-02-18T00:02:51.623Z,45.43
2019-02-18T00:05:40.824Z,42.10
2019-02-18T00:08:29.566Z,36.23
2019-02-18T00:11:18.360Z,49.33
2019-02-18T00:14:07.785Z,41.90
2019-02-18T00:16:57.130Z,41.28
2019-02-18T00:19:46.631Z,43.08
2019-02-18T00:22:35.113Z,42.33
2019-02-18T00:25:24.451Z,41.15
2019-02-18T00:28:13.826Z,40.28
2019-02-18T00:31:02.983Z,44.15
2019-02-18T00:33:52.513Z,37.83
2019-02-18T00:36:41.695Z,38.53
2019-02-18T00:39:31.102Z,47.43
2019-02-18T00:42:20.118Z,40.25
2019-02-18T00:45:15.889Z,44.75
2019-02-18T00:48:05.069Z,39.92
2019-02-18T00:50:54.322Z,36.23
2019-02-18T00:53:43.405Z,41.28
2019-02-18T00:56:32.762Z,59.35
2019-02-18T00:59:21.834Z,51.68
2019-02-18T01:02:11.608Z,50.70
2019-02-18T01:05:01.493Z,47.78
2019-02-18T01:07:50.381Z,50.25
2019-02-18T01:10:39.415Z,36.98
2019-02-18T01:13:28.103Z,35.28
2019-02-18T01:16:17.667Z,46.28
2019-02-18T01:19:06.852Z,42.65
2019-02-18T01:21:56.400Z,44.65
2019-02-18T01:24:45.143Z,42.93
2019-02-18T01:27:34.662Z,40.08
2019-02-18T01:30:23.144Z,40.20
2019-02-18T01:33:12.753Z,43.98
2019-02-18T01:36:01.892Z,40.45
2019-02-18T01:38:50.985Z,49.53
2019-02-18T01:41:39.951Z,47.73
2019-02-18T01:44:29.158Z,46.68
2019-02-18T01:47:18.593Z,50.75
2019-02-18T01:50:13.985Z,42.48
2019-02-18T01:53:02.985Z,45.40
2019-02-18T01:55:52.379Z,53.68
2019-02-18T01:58:41.919Z,50.60
2019-02-18T02:01:30.680Z,59.93
2019-02-18T02:04:19.631Z,37.23
2019-02-18T02:07:08.986Z,49.58
2019-02-18T02:09:58.585Z,46.75
2019-02-18T02:12:48.082Z,50.08
2019-02-18T02:15:37.430Z,50.90
2019-02-18T02:18:26.454Z,49.08
2019-02-18T02:21:15.756Z,52.90
2019-02-18T02:24:05.389Z,44.27
2019-02-18T02:26:54.609Z,38.50
2019-02-18T02:29:43.570Z,41.73
2019-02-18T02:32:32.630Z,49.53
2019-02-18T02:35:22.011Z,46.18
2019-02-18T02:38:11.068Z,48.05
2019-02-18T02:41:00.650Z,48.80
2019-02-18T02:43:49.954Z,40.23
2019-02-18T02:46:39.081Z,44.88
2019-02-18T02:49:27.607Z,48.92
2019-02-18T02:52:16.695Z,46.20
2019-02-18T02:55:06.726Z,46.75
2019-02-18T02:57:56.359Z,50.92
2019-02-18T03:00:44.936Z,44.33
2019-02-18T03:03:34.701Z,42.88
2019-02-18T03:06:24.048Z,51.15
2019-02-18T03:09:13.241Z,45.48
2019-02-18T03:12:02.815Z,48.87
2019-02-18T03:14:52.149Z,53.73
2019-02-18T03:17:41.362Z,46.28
2019-02-18T03:20:30.478Z,48.55
2019-02-18T03:23:19.893Z,40.90
2019-02-18T03:26:09.158Z,46.50
2019-02-18T03:29:37.547Z,53.28
2019-02-18T03:32:26.677Z,46.48
2019-02-18T03:35:15.781Z,42.65
2019-02-18T03:38:05.036Z,41.75
2019-02-18T03:41:02.901Z,43.28
2019-02-18T03:43:45.024Z,42.48
2019-02-18T03:46:33.867Z,38.38
2019-02-18T03:49:23.359Z,40.48
2019-02-18T03:52:11.759Z,37.98
2019-02-18T03:55:01.846Z,47.55
2019-02-18T03:57:50.934Z,34.38
2019-02-18T04:00:39.922Z,35.15
2019-02-18T04:03:28.462Z,34.58
2019-02-18T04:06:17.741Z,38.65
2019-02-18T04:09:06.963Z,39.05
2019-02-18T04:11:55.876Z,34.65
2019-02-18T04:14:45.168Z,39.27
2019-02-18T04:17:34.522Z,39.92
2019-02-18T04:20:24.097Z,33.60
2019-02-18T04:23:13.869Z,34.45
2019-02-18T04:26:02.925Z,34.98
2019-02-18T04:28:52.207Z,43.25
2019-02-18T04:31:41.157Z,39.35
2019-02-18T04:34:30.536Z,36.60
2019-02-18T04:37:19.689Z,34.35
2019-02-18T04:40:10.111Z,36.73
2019-02-18T04:42:59.384Z,36.63
2019-02-18T04:45:48.161Z,36.35
2019-02-18T04:48:39.014Z,38.28
2019-02-18T04:51:28.118Z,37.15
2019-02-18T04:54:16.962Z,36.85
2019-02-18T04:57:06.493Z,41.15
2019-02-18T04:59:55.704Z,34.88
2019-02-18T05:02:44.972Z,35.55
2019-02-18T05:05:33.629Z,34.60
2019-02-18T05:08:22.549Z,39.20
2019-02-18T05:11:11.759Z,37.03
2019-02-18T05:14:00.709Z,30.32
2019-02-18T05:16:49.890Z,27.22
2019-02-18T05:19:39.131Z,30.75
2019-02-18T05:22:28.440Z,27.15
2019-02-18T05:25:17.543Z,28.55
2019-02-18T05:28:06.872Z,29.23
2019-02-18T05:30:56.055Z,29.30
2019-02-18T05:33:45.146Z,27.25
2019-02-18T05:36:34.365Z,25.00
2019-02-18T05:39:23.289Z,30.35
2019-02-18T05:42:12.803Z,25.40
2019-02-18T05:45:01.720Z,24.65
2019-02-18T05:47:51.035Z,29.92
2019-02-18T05:50:40.291Z,30.30
2019-02-18T05:53:29.881Z,36.03
2019-02-18T05:56:19.101Z,28.20
2019-02-18T05:59:08.624Z,30.08
2019-02-18T06:01:57.658Z,31.68
2019-02-18T06:04:47.492Z,35.95
2019-02-18T06:07:36.818Z,27.62
2019-02-18T06:10:25.609Z,27.15
2019-02-18T06:13:14.983Z,32.83
2019-02-18T06:16:04.601Z,40.88
2019-02-18T06:18:53.397Z,33.10
2019-02-18T06:21:42.695Z,40.70
2019-02-18T06:24:31.547Z,31.40
2019-02-18T06:27:21.113Z,33.42
2019-02-18T06:30:11.647Z,31.97
2019-02-18T06:33:01.219Z,36.73
2019-02-18T06:35:50.793Z,34.75
2019-02-18T06:38:40.340Z,34.75
2019-02-18T06:41:29.918Z,37.35
2019-02-18T06:44:20.641Z,39.38
2019-02-18T06:47:10.504Z,36.60
2019-02-18T06:49:59.223Z,41.05
2019-02-18T06:52:48.560Z,37.88
2019-02-18T06:55:37.869Z,34.58
2019-02-18T06:58:28.001Z,37.95
2019-02-18T07:01:18.772Z,31.57
2019-02-18T07:04:17.640Z,38.85
2019-02-18T07:07:11.133Z,35.83
2019-02-18T07:10:01.968Z,36.42
2019-02-18T07:12:51.116Z,35.05
2019-02-18T07:15:40.360Z,36.93
2019-02-18T07:18:29.604Z,34.27
2019-02-18T07:21:19.041Z,33.90
2019-02-18T07:24:08.618Z,30.32
2019-02-18T07:26:57.698Z,40.70
2019-02-18T07:29:46.541Z,28.15
2019-02-18T07:32:35.903Z,37.00
2019-02-18T07:35:25.417Z,35.23
2019-02-18T07:38:14.482Z,32.17
2019-02-18T07:41:03.114Z,33.95
2019-02-18T07:43:52.205Z,32.05
2019-02-18T07:46:41.854Z,33.13
2019-02-18T07:49:31.098Z,29.92
2019-02-18T07:52:20.602Z,31.40
2019-02-18T07:55:11.174Z,30.97
2019-02-18T07:58:00.161Z,32.33
2019-02-18T08:00:48.573Z,31.68
2019-02-18T08:03:39.623Z,26.30
2019-02-18T09:45:06.862Z,27.60
2019-02-18T09:47:56.352Z,23.00
2019-02-18T10:10:24.461Z,27.90
2019-02-18T11:45:53.670Z,31.40
2019-02-18T11:51:31.247Z,30.30
2019-02-18T11:54:20.494Z,28.05
2019-02-18T12:08:22.981Z,27.35
2019-02-18T12:11:12.027Z,28.83
2019-02-18T12:14:00.930Z,30.60
2019-02-18T12:16:50.250Z,26.80
2019-02-18T12:19:39.473Z,32.70
2019-02-18T12:22:28.601Z,28.47
2019-02-18T12:25:17.958Z,25.77
2019-02-18T12:28:07.067Z,29.37
2019-02-18T12:30:56.290Z,36.85
2019-02-18T12:33:46.043Z,31.35
2019-02-18T12:45:00.216Z,40.40
2019-02-18T12:47:49.552Z,30.50
2019-02-18T12:50:38.924Z,26.70
2019-02-18T12:53:27.879Z,36.73
2019-02-18T16:10:03.089Z,31.20
2019-02-18T16:12:52.419Z,24.60
2019-02-18T16:15:41.625Z,25.10
2019-02-18T16:21:19.075Z,27.00
2019-02-18T16:40:58.500Z,26.03
2019-02-18T16:49:24.432Z,35.40
2019-02-18T16:52:13.127Z,28.35
2019-02-18T16:55:02.083Z,40.40
2019-02-18T17:00:39.696Z,27.40
2019-02-18T17:03:28.649Z,28.67
2019-02-18T17:06:18.339Z,29.80
2019-02-18T17:09:12.801Z,36.93
2019-02-18T17:12:02.711Z,33.75
2019-02-18T17:14:52.015Z,32.25
2019-02-18T17:17:41.050Z,24.85
2019-02-18T17:20:29.822Z,28.30
2019-02-18T17:23:19.377Z,27.32
2019-02-18T17:26:07.930Z,26.00
2019-02-18T17:28:57.278Z,27.70
2019-02-18T17:31:46.375Z,29.07
2019-02-18T17:34:35.723Z,29.42
2019-02-18T17:37:24.915Z,31.57
2019-02-18T17:40:15.088Z,29.42
2019-02-18T17:43:04.261Z,36.53
2019-02-18T17:45:53.632Z,31.97
2019-02-18T17:48:42.910Z,35.45
2019-02-18T17:51:32.378Z,38.10
2019-02-18T17:54:21.332Z,38.90
2019-02-18T17:57:10.734Z,34.35
2019-02-18T17:59:59.580Z,35.15
2019-02-18T18:02:48.546Z,39.10
2019-02-18T18:05:37.395Z,38.50
2019-02-18T18:08:26.365Z,43.63
2019-02-18T18:11:14.875Z,37.70
2019-02-18T18:14:04.309Z,36.77
2019-02-18T18:16:53.551Z,34.08
2019-02-18T18:19:42.528Z,31.27
2019-02-18T18:22:32.344Z,36.53
2019-02-18T18:25:21.418Z,33.83
2019-02-18T18:28:10.731Z,35.40
2019-02-18T18:31:00.075Z,33.50
2019-02-18T18:33:49.680Z,35.90
2019-02-18T18:36:39.052Z,31.40
2019-02-18T18:39:28.318Z,31.73
2019-02-18T18:42:17.694Z,35.45
2019-02-18T18:45:10.647Z,30.17
2019-02-18T18:48:00.021Z,32.05
2019-02-18T18:50:49.870Z,34.90
2019-02-18T18:53:39.175Z,31.20
2019-02-18T18:56:28.205Z,34.33
2019-02-18T18:59:17.715Z,36.80
2019-02-18T19:02:07.300Z,32.73
2019-02-18T19:04:56.455Z,32.33
2019-02-18T19:07:45.436Z,27.87
2019-02-18T19:10:34.794Z,33.88
2019-02-18T19:13:23.960Z,32.00
2019-02-18T19:16:12.758Z,35.63
2019-02-18T19:19:02.986Z,29.57
2019-02-18T19:21:51.817Z,30.15
2019-02-18T19:24:40.927Z,30.12
2019-02-18T19:27:29.897Z,32.55
2019-02-18T19:30:25.919Z,32.85
2019-02-18T19:33:14.784Z,36.00
2019-02-18T19:36:03.732Z,33.60
2019-02-18T19:38:53.632Z,32.15
2019-02-18T19:41:42.683Z,30.85
2019-02-18T19:44:32.274Z,31.05
2019-02-18T19:47:21.450Z,32.70
2019-02-18T19:50:10.910Z,34.45
2019-02-18T19:53:00.201Z,35.68
2019-02-18T19:55:49.651Z,31.50
2019-02-18T19:58:38.580Z,32.65
2019-02-18T20:01:28.196Z,29.00
2019-02-18T20:04:17.643Z,29.87
2019-02-18T20:07:06.424Z,26.23
2019-02-18T20:09:55.248Z,27.48
2019-02-18T20:12:44.451Z,29.65
2019-02-18T20:15:33.696Z,29.92
2019-02-18T20:18:22.363Z,33.02
2019-02-18T20:21:11.552Z,29.85
2019-02-18T20:24:00.041Z,33.80
2019-02-18T20:26:49.035Z,27.10
2019-02-18T20:29:38.116Z,41.75
2019-02-18T20:32:27.547Z,34.40
2019-02-18T20:35:16.633Z,36.75
2019-02-18T20:38:05.779Z,36.03
2019-02-18T20:40:54.936Z,40.25
2019-02-18T20:43:43.654Z,41.98
2019-02-18T20:46:33.235Z,66.95
2019-02-18T20:49:22.424Z,108.65
2019-02-18T20:52:13.701Z,83.92
2019-02-18T20:55:03.559Z,42.50
2019-02-18T20:57:52.623Z,41.63
2019-02-18T21:00:41.929Z,48.25
2019-02-18T21:03:31.523Z,40.38
2019-02-18T21:06:20.905Z,39.73
2019-02-18T21:09:10.152Z,39.53
2019-02-18T21:11:59.528Z,50.98
2019-02-18T21:14:47.978Z,39.95
2019-02-18T21:17:38.581Z,40.67
2019-02-18T21:20:27.489Z,48.55
2019-02-18T21:23:17.010Z,37.28
2019-02-18T21:26:06.496Z,28.75
2019-02-18T21:28:55.763Z,27.73
2019-02-18T21:31:44.209Z,32.85
2019-02-18T21:34:33.482Z,33.65
2019-02-18T21:37:22.537Z,32.50
2019-02-18T21:40:13.521Z,28.80
2019-02-18T21:43:02.535Z,25.80
2019-02-18T21:45:51.722Z,29.02
2019-02-18T21:48:40.964Z,30.45
2019-02-18T21:51:29.957Z,30.17
2019-02-18T21:54:19.285Z,29.75
2019-02-18T21:57:08.549Z,31.20
2019-02-18T21:59:57.519Z,28.92
2019-02-18T22:02:47.256Z,24.57
2019-02-18T22:05:37.336Z,31.20
2019-02-18T22:08:26.144Z,42.15
2019-02-18T22:11:15.015Z,34.43
2019-02-18T22:14:04.190Z,34.98
2019-02-18T22:16:53.151Z,41.75
2019-02-18T22:19:42.401Z,33.13
2019-02-18T22:22:31.526Z,31.62
2019-02-18T22:25:20.331Z,33.53
2019-02-18T22:28:09.604Z,35.95
2019-02-18T22:30:58.635Z,36.42
2019-02-18T22:33:47.417Z,35.08
2019-02-18T22:36:36.519Z,32.38
2019-02-18T22:39:26.158Z,36.15
2019-02-18T22:42:15.226Z,33.10
2019-02-18T22:45:05.928Z,32.75
2019-02-18T22:47:54.788Z,29.45
2019-02-18T22:50:44.264Z,30.37
2019-02-18T22:53:34.100Z,33.78
2019-02-18T22:56:22.873Z,30.52
2019-02-18T22:59:12.681Z,30.25
2019-02-18T23:02:01.856Z,37.95
2019-02-18T23:04:51.115Z,30.75
2019-02-18T23:07:40.406Z,32.75
2019-02-18T23:10:30.070Z,29.23
2019-02-18T23:13:19.243Z,24.40
2019-02-18T23:16:07.979Z,29.42
2019-02-18T23:18:57.064Z,24.18
2019-02-18T23:21:47.363Z,26.27
2019-02-18T23:24:36.730Z,27.20
2019-02-18T23:27:25.861Z,24.95
2019-02-18T23:30:16.374Z,22.00
2019-02-18T23:33:05.407Z,24.60
2019-02-18T23:35:54.730Z,28.38
2019-02-18T23:38:43.489Z,24.23
2019-02-18T23:41:32.656Z,28.80
2019-02-18T23:44:21.947Z,26.95
2019-02-18T23:47:11.498Z,23.80
2019-02-18T23:50:01.005Z,28.00
2019-02-18T23:52:50.546Z,28.52
2019-02-18T23:55:39.731Z,23.40
2019-02-18T23:58:29.055Z,24.23
